Time;durP1;ratioP1;P1;durP2;ratioP2;P2;SDS_P1;SDS_P2;PMS_P1;PMS_P2;Temp;Humidity;BMP_temperature;BMP_pressure;BME280_temperature;BME280_humidity;BME280_pressure;Samples;Min_cycle;Max_cycle;Signal;HPM_P1;HPM_P2
2023/01/08 00:02:20;;;;;;;3.37;3.17;;;8.60;1.00;;;;;;5055638;28;20207;-74
2023/01/08 00:04:46;;;;;;;3.63;3.33;;;8.60;1.00;;;;;;5054840;28;20656;-74
2023/01/08 00:07:11;;;;;;;5.17;4.00;;;8.60;1.00;;;;;;5055418;28;20217;-74
2023/01/08 00:09:37;;;;;;;3.30;3.10;;;8.60;1.00;;;;;;5053870;28;20198;-74
2023/01/08 00:12:03;;;;;;;3.27;3.07;;;8.60;1.00;;;;;;5055123;28;20175;-74
2023/01/08 00:14:29;;;;;;;3.60;3.40;;;8.60;1.00;;;;;;5054653;28;20282;-74
2023/01/08 00:16:55;;;;;;;3.67;3.30;;;8.60;1.00;;;;;;5055143;28;20460;-74
2023/01/08 00:19:21;;;;;;;4.50;4.10;;;8.60;1.00;;;;;;5055327;28;20401;-74
2023/01/08 00:21:46;;;;;;;3.20;3.00;;;8.60;1.00;;;;;;5054205;28;20510;-74
2023/01/08 00:24:12;;;;;;;3.20;3.00;;;8.60;1.00;;;;;;5054891;28;20264;-74
2023/01/08 00:26:38;;;;;;;3.53;3.23;;;8.70;1.00;;;;;;5054859;28;20176;-74
2023/01/08 00:29:04;;;;;;;6.73;3.30;;;8.70;1.00;;;;;;5054401;28;20185;-74
2023/01/08 00:31:29;;;;;;;5.67;4.30;;;8.70;1.00;;;;;;5055124;28;20180;-74
2023/01/08 00:33:55;;;;;;;3.40;3.20;;;8.70;1.00;;;;;;5054950;28;20172;-73
2023/01/08 00:36:21;;;;;;;4.10;3.80;;;8.70;1.00;;;;;;5054160;28;20203;-74
2023/01/08 00:38:46;;;;;;;3.20;2.90;;;8.80;99.90;;;;;;5054917;28;20169;-74
2023/01/08 00:41:13;;;;;;;4.10;3.77;;;8.80;99.90;;;;;;5054791;28;20182;-74
2023/01/08 00:43:39;;;;;;;4.00;3.70;;;8.80;99.90;;;;;;5054859;28;20254;-74
2023/01/08 00:46:06;;;;;;;3.73;3.53;;;8.80;99.90;;;;;;5053842;28;20504;-74
2023/01/08 00:48:36;;;;;;;3.53;3.23;;;8.80;99.90;;;;;;5054527;28;20179;-75
2023/01/08 00:51:02;;;;;;;3.83;3.63;;;8.80;99.90;;;;;;5054631;28;20426;-74
2023/01/08 00:53:28;;;;;;;4.53;3.67;;;8.80;99.90;;;;;;5054720;28;20433;-74
2023/01/08 00:56:05;;;;;;;3.80;3.50;;;8.80;99.90;;;;;;5053783;28;20469;-74
2023/01/08 00:58:31;;;;;;;4.20;3.90;;;8.80;99.90;;;;;;5054590;28;20382;-73
2023/01/08 01:00:57;;;;;;;3.70;3.43;;;8.80;99.90;;;;;;5053187;28;20402;-74
2023/01/08 01:03:23;;;;;;;3.70;3.37;;;8.80;99.90;;;;;;5054424;28;20401;-73
2023/01/08 01:05:49;;;;;;;8.93;4.57;;;8.80;99.90;;;;;;5053312;28;20400;-74
2023/01/08 01:08:15;;;;;;;3.67;3.47;;;8.80;99.90;;;;;;5054028;28;20251;-74
2023/01/08 01:10:41;;;;;;;4.17;3.77;;;8.80;99.90;;;;;;5054354;28;20172;-74
2023/01/08 01:13:06;;;;;;;3.50;3.30;;;8.90;99.90;;;;;;5054110;28;20501;-74
2023/01/08 01:15:34;;;;;;;6.80;3.37;;;8.80;99.90;;;;;;5053377;28;20701;-74
2023/01/08 01:17:59;;;;;;;3.80;3.50;;;8.80;99.90;;;;;;5054228;28;20167;-74
2023/01/08 01:20:25;;;;;;;3.70;3.40;;;8.90;99.90;;;;;;5054049;28;20414;-74
2023/01/08 01:22:51;;;;;;;3.93;3.63;;;8.90;99.90;;;;;;5054162;28;20201;-74
2023/01/08 01:25:17;;;;;;;4.30;4.00;;;8.90;99.90;;;;;;5052641;28;20199;-74
2023/01/08 01:27:42;;;;;;;4.27;3.87;;;8.90;99.90;;;;;;5054009;28;20168;-74
2023/01/08 01:30:09;;;;;;;4.17;3.77;;;8.90;99.90;;;;;;5054045;28;20185;-74
2023/01/08 01:32:34;;;;;;;3.83;3.53;;;8.90;99.90;;;;;;5052554;28;20640;-74
2023/01/08 01:35:01;;;;;;;4.17;3.87;;;8.90;99.90;;;;;;5052049;28;20481;-74
2023/01/08 01:37:27;;;;;;;3.60;3.40;;;8.90;99.90;;;;;;5053754;28;20212;-74
2023/01/08 01:39:55;;;;;;;9.30;3.80;;;8.90;99.90;;;;;;5053623;28;20415;-74
2023/01/08 01:42:38;;;;;;;3.87;3.57;;;8.90;99.90;;;;;;5053469;28;20188;-73
2023/01/08 01:45:24;;;;;;;3.90;3.60;;;8.90;99.90;;;;;;5052845;28;20425;-74
2023/01/08 01:48:14;;;;;;;4.00;3.70;;;8.90;99.90;;;;;;5053594;28;20382;-74
2023/01/08 01:50:53;;;;;;;4.00;3.77;;;8.90;99.90;;;;;;5053666;28;20908;-74
2023/01/08 01:53:29;;;;;;;4.23;3.87;;;8.90;99.90;;;;;;5053607;28;20398;-74
2023/01/08 01:55:56;;;;;;;4.10;3.70;;;8.90;99.90;;;;;;5051341;28;20439;-73
2023/01/08 01:58:25;;;;;;;4.17;3.87;;;8.90;99.90;;;;;;5053454;28;20386;-74
2023/01/08 02:00:52;;;;;;;4.03;3.73;;;8.90;99.90;;;;;;5053496;28;20411;-74
2023/01/08 02:03:22;;;;;;;4.20;3.80;;;8.90;99.90;;;;;;5051764;28;20393;-74
2023/01/08 02:06:02;;;;;;;4.60;4.10;;;8.90;99.90;;;;;;5052121;28;20794;-74
2023/01/08 02:08:48;;;;;;;4.40;4.00;;;9.00;99.90;;;;;;5053189;28;20909;-74
2023/01/08 02:11:29;;;;;;;5.10;4.57;;;8.90;99.90;;;;;;5052057;28;20391;-74
2023/01/08 02:14:01;;;;;;;3.70;3.40;;;8.90;99.90;;;;;;5053096;28;20837;-74
2023/01/08 02:16:45;;;;;;;3.80;3.50;;;9.00;99.90;;;;;;5052587;28;20451;-73
2023/01/08 02:19:35;;;;;;;4.57;4.17;;;9.00;99.90;;;;;;5052924;28;20381;-74
2023/01/08 02:22:30;;;;;;;4.10;3.80;;;9.00;99.90;;;;;;5052903;28;20420;-73
2023/01/08 02:25:04;;;;;;;4.73;4.33;;;9.00;99.90;;;;;;5052237;28;20424;-74
2023/01/08 02:27:31;;;;;;;4.40;4.10;;;9.00;99.90;;;;;;5053122;28;20390;-74
2023/01/08 02:29:58;;;;;;;7.17;3.43;;;8.90;99.90;;;;;;5053011;28;20803;-74
2023/01/08 02:32:35;;;;;;;4.23;3.93;;;8.90;99.90;;;;;;5053004;28;20432;-73
2023/01/08 02:35:00;;;;;;;4.90;4.47;;;9.00;99.90;;;;;;5052200;28;20781;-74
2023/01/08 02:37:26;;;;;;;4.27;3.87;;;8.90;99.90;;;;;;5052387;28;20451;-74
2023/01/08 02:40:15;;;;;;;3.80;3.40;;;8.90;99.90;;;;;;5052557;28;20174;-74
2023/01/08 02:42:47;;;;;;;4.47;4.07;;;9.00;99.90;;;;;;5051730;28;20544;-74
2023/01/08 02:45:18;;;;;;;4.20;3.90;;;9.00;99.90;;;;;;5052130;28;20474;-73
2023/01/08 02:48:39;;;;;;;4.20;3.80;;;9.00;99.90;;;;;;5052739;28;20408;-74
2023/01/08 02:51:12;;;;;;;3.93;3.57;;;9.00;99.90;;;;;;5029144;28;20400;-73
2023/01/08 02:53:45;;;;;;;4.53;4.00;;;9.00;99.90;;;;;;5052718;28;20479;-74
2023/01/08 02:56:16;;;;;;;4.47;4.17;;;9.10;99.90;;;;;;5052043;28;20483;-74
2023/01/08 02:58:46;;;;;;;3.70;3.40;;;9.00;99.90;;;;;;5052300;28;20379;-73
2023/01/08 03:01:15;;;;;;;3.40;3.20;;;9.00;99.90;;;;;;5052769;28;20491;-74
2023/01/08 03:03:44;;;;;;;4.03;3.73;;;9.00;99.90;;;;;;5052747;28;20402;-74
2023/01/08 03:06:14;;;;;;;4.57;4.00;;;9.10;99.90;;;;;;5050723;28;20440;-74
2023/01/08 03:08:42;;;;;;;3.80;3.60;;;9.10;99.90;;;;;;5051626;28;20399;-74
2023/01/08 03:11:14;;;;;;;7.67;4.10;;;9.10;99.90;;;;;;5052593;28;20384;-74
2023/01/08 03:13:54;;;;;;;3.97;3.77;;;9.10;99.90;;;;;;5052555;28;20483;-74
2023/01/08 03:16:41;;;;;;;4.23;3.93;;;9.10;99.90;;;;;;5051097;28;20476;-74
2023/01/08 03:19:17;;;;;;;3.80;3.60;;;9.10;99.90;;;;;;5055016;28;20418;-74
2023/01/08 03:21:45;;;;;;;3.50;3.30;;;9.10;99.90;;;;;;5056428;28;20397;-74
2023/01/08 03:24:27;;;;;;;4.27;3.90;;;9.10;99.90;;;;;;5056071;28;20429;-74
2023/01/08 03:26:57;;;;;;;4.80;4.30;;;9.10;99.90;;;;;;5056389;28;20397;-74
2023/01/08 03:29:24;;;;;;;5.97;5.10;;;9.10;99.90;;;;;;5056411;28;20411;-74
2023/01/08 03:31:53;;;;;;;4.43;4.03;;;9.00;99.90;;;;;;5056011;28;20758;-73
2023/01/08 03:34:20;;;;;;;5.00;4.60;;;9.00;99.90;;;;;;5054973;28;20435;-74
2023/01/08 03:36:49;;;;;;;4.63;4.27;;;9.00;99.90;;;;;;5056036;28;20442;-74
2023/01/08 03:39:23;;;;;;;4.23;3.93;;;9.00;99.90;;;;;;5056086;28;20865;-73
2023/01/08 03:41:52;;;;;;;5.10;4.60;;;8.90;99.90;;;;;;5055858;28;20444;-74
2023/01/08 03:44:18;;;;;;;5.00;4.37;;;8.90;99.90;;;;;;5055128;28;20884;-74
2023/01/08 03:46:51;;;;;;;5.30;4.10;;;8.90;99.90;;;;;;5055994;28;20425;-74
2023/01/08 03:49:18;;;;;;;4.53;4.23;;;8.90;99.90;;;;;;5055904;28;20560;-73
2023/01/08 03:51:46;;;;;;;4.43;4.13;;;8.90;99.90;;;;;;5055306;28;20416;-74
2023/01/08 03:54:20;;;;;;;5.03;4.63;;;8.90;99.90;;;;;;5055366;28;20933;-74
2023/01/08 03:56:46;;;;;;;4.57;4.27;;;8.80;99.90;;;;;;5055686;28;20425;-74
2023/01/08 03:59:12;;;;;;;4.67;4.30;;;8.70;99.90;;;;;;5054755;28;20566;-74
2023/01/08 04:01:38;;;;;;;4.70;4.30;;;8.70;99.90;;;;;;5055661;28;20183;-74
2023/01/08 04:04:04;;;;;;;4.47;4.00;;;8.70;99.90;;;;;;5055679;28;20518;-74
2023/01/08 04:06:30;;;;;;;4.20;3.80;;;8.70;99.90;;;;;;5054989;28;20183;-74
2023/01/08 04:08:56;;;;;;;4.77;4.33;;;8.70;99.90;;;;;;5055384;28;20441;-74
2023/01/08 04:11:22;;;;;;;4.97;4.20;;;8.70;99.90;;;;;;5053852;28;20246;-74
2023/01/08 04:13:48;;;;;;;4.77;4.37;;;8.70;99.90;;;;;;5055351;28;20621;-74
2023/01/08 04:16:13;;;;;;;5.10;4.70;;;8.70;99.90;;;;;;5054648;28;20508;-74
2023/01/08 04:18:39;;;;;;;4.20;3.80;;;8.60;99.90;;;;;;5055297;28;20217;-73
2023/01/08 04:21:05;;;;;;;4.53;4.13;;;8.60;99.90;;;;;;5055223;28;20195;-74
2023/01/08 04:23:31;;;;;;;5.40;4.80;;;8.60;99.90;;;;;;5055393;28;20250;-74
2023/01/08 04:25:56;;;;;;;7.67;4.60;;;8.60;99.90;;;;;;5054486;28;20787;-74
2023/01/08 04:28:23;;;;;;;5.00;4.37;;;8.60;99.90;;;;;;5054473;28;20172;-73
2023/01/08 04:30:49;;;;;;;5.97;5.47;;;8.60;99.90;;;;;;5054982;28;20172;-74
2023/01/08 04:33:15;;;;;;;3.70;3.40;;;8.60;99.90;;;;;;5055064;28;20914;-74
2023/01/08 04:35:41;;;;;;;4.43;4.07;;;8.60;99.90;;;;;;5054132;28;20436;-74
2023/01/08 04:38:07;;;;;;;4.20;3.90;;;8.60;99.90;;;;;;5055085;28;20197;-74
2023/01/08 04:40:33;;;;;;;7.10;4.37;;;8.60;99.90;;;;;;5054892;28;20178;-74
2023/01/08 04:42:59;;;;;;;5.17;4.60;;;8.50;99.90;;;;;;5054805;28;20173;-73
2023/01/08 04:45:25;;;;;;;4.53;4.17;;;8.60;99.90;;;;;;5054038;28;20421;-74
2023/01/08 04:47:58;;;;;;;4.20;3.90;;;8.60;99.90;;;;;;5054235;28;20732;-73
2023/01/08 04:50:25;;;;;;;4.43;4.03;;;8.60;99.90;;;;;;5054771;28;20571;-74
2023/01/08 04:52:51;;;;;;;4.60;4.30;;;8.60;99.90;;;;;;5054704;28;20411;-74
2023/01/08 04:55:16;;;;;;;5.00;4.33;;;8.60;99.90;;;;;;5053847;28;20428;-72
2023/01/08 04:57:42;;;;;;;4.93;4.50;;;8.60;99.90;;;;;;5054645;28;20402;-74
2023/01/08 05:00:08;;;;;;;5.07;4.67;;;8.60;99.90;;;;;;5054757;28;20509;-73
2023/01/08 05:02:34;;;;;;;4.67;4.27;;;8.60;99.90;;;;;;5054521;28;20406;-73
2023/01/08 05:05:00;;;;;;;4.17;3.83;;;8.70;99.90;;;;;;5053669;28;20908;-74
2023/01/08 05:07:26;;;;;;;4.37;4.07;;;8.60;99.90;;;;;;5053714;28;20260;-74
2023/01/08 05:09:51;;;;;;;4.90;4.47;;;8.60;1.00;;;;;;5054438;28;20174;-74
2023/01/08 05:12:17;;;;;;;4.53;4.17;;;8.60;1.00;;;;;;5054385;28;20419;-74
2023/01/08 05:14:43;;;;;;;5.93;5.33;;;8.60;1.00;;;;;;5053700;28;20205;-74
2023/01/08 05:17:09;;;;;;;4.30;4.00;;;8.70;1.00;;;;;;5054089;28;20204;-74
2023/01/08 05:19:34;;;;;;;4.00;3.70;;;8.60;1.00;;;;;;5054143;28;20180;-74
2023/01/08 05:22:00;;;;;;;5.50;5.00;;;8.60;1.00;;;;;;5053035;28;20172;-74
2023/01/08 05:24:26;;;;;;;5.13;4.73;;;8.60;1.00;;;;;;5052789;28;20646;-74
2023/01/08 05:26:51;;;;;;;4.17;3.87;;;8.70;1.00;;;;;;5054175;28;20652;-74
2023/01/08 05:29:17;;;;;;;4.77;4.27;;;8.70;1.00;;;;;;5053973;28;20655;-74
2023/01/08 05:31:43;;;;;;;4.43;4.13;;;8.60;1.00;;;;;;5054034;28;20179;-74
2023/01/08 05:34:08;;;;;;;4.43;4.13;;;8.60;1.00;;;;;;5053798;28;20198;-74
2023/01/08 05:36:34;;;;;;;4.50;4.20;;;8.60;1.00;;;;;;5053116;28;20210;-74
2023/01/08 05:39:00;;;;;;;7.50;5.10;;;8.60;1.00;;;;;;5053887;28;20524;-74
2023/01/08 05:41:25;;;;;;;4.80;4.40;;;8.60;1.00;;;;;;5053079;28;20167;-74
2023/01/08 05:43:51;;;;;;;4.93;4.43;;;8.50;1.00;;;;;;5053108;28;20706;-74
2023/01/08 05:46:17;;;;;;;5.13;4.73;;;8.50;1.00;;;;;;5053064;28;20177;-74
2023/01/08 05:48:42;;;;;;;4.67;4.27;;;8.50;1.00;;;;;;5053726;28;20695;-74
2023/01/08 05:51:08;;;;;;;5.57;5.13;;;8.50;1.00;;;;;;5053592;28;20199;-73
2023/01/08 05:53:34;;;;;;;5.13;4.73;;;8.50;1.00;;;;;;5053468;28;20174;-74
2023/01/08 05:56:05;;;;;;;5.53;4.77;;;8.40;1.00;;;;;;5051565;28;20213;-74
2023/01/08 05:58:31;;;;;;;4.70;4.20;;;8.40;1.00;;;;;;5053223;28;20250;-74
2023/01/08 06:01:09;;;;;;;5.53;4.93;;;8.40;1.00;;;;;;5052121;28;20507;-74
2023/01/08 06:03:35;;;;;;;4.30;4.00;;;8.40;1.00;;;;;;5053160;28;20255;-73
2023/01/08 06:06:02;;;;;;;7.73;5.00;;;8.30;1.00;;;;;;5052759;28;20433;-73
2023/01/08 06:08:29;;;;;;;5.30;4.90;;;8.30;1.00;;;;;;5053368;28;20805;-73
2023/01/08 06:11:02;;;;;;;5.50;4.60;;;8.30;1.00;;;;;;5053280;28;20422;-74
2023/01/08 06:13:28;;;;;;;4.40;4.00;;;8.30;1.00;;;;;;5053326;28;20402;-74
2023/01/08 06:15:54;;;;;;;3.70;3.50;;;8.30;1.00;;;;;;5052380;28;20457;-74
2023/01/08 06:18:19;;;;;;;4.83;4.53;;;8.30;1.00;;;;;;5052335;28;20894;-73
2023/01/08 06:20:45;;;;;;;4.67;4.27;;;8.30;1.00;;;;;;5053114;28;20377;-73
2023/01/08 06:23:11;;;;;;;4.90;4.40;;;8.20;1.00;;;;;;5053131;28;20160;-74
2023/01/08 06:25:37;;;;;;;4.80;4.50;;;8.20;1.00;;;;;;5052244;28;20205;-74
2023/01/08 06:28:03;;;;;;;4.87;4.47;;;8.20;1.00;;;;;;5053021;28;20384;-74
2023/01/08 06:30:29;;;;;;;5.70;5.10;;;8.20;1.00;;;;;;5052990;28;20250;-74
2023/01/08 06:32:56;;;;;;;4.73;4.33;;;8.20;1.00;;;;;;5052885;28;20406;-74
2023/01/08 06:35:22;;;;;;;4.80;4.40;;;8.20;1.00;;;;;;5051472;28;20454;-73
2023/01/08 06:37:48;;;;;;;4.80;4.40;;;8.20;1.00;;;;;;5052816;28;20453;-74
2023/01/08 06:40:14;;;;;;;5.23;4.73;;;8.20;1.00;;;;;;5052991;28;20891;-74
2023/01/08 06:42:40;;;;;;;4.80;4.40;;;8.30;1.00;;;;;;5052986;28;20506;-74
2023/01/08 06:45:06;;;;;;;4.57;4.10;;;8.30;1.00;;;;;;5052138;28;20208;-73
2023/01/08 06:47:32;;;;;;;4.50;4.20;;;8.30;1.00;;;;;;5051593;28;20261;-75
2023/01/08 06:49:58;;;;;;;4.60;4.20;;;8.30;1.00;;;;;;5052516;28;20492;-74
2023/01/08 06:52:24;;;;;;;4.63;4.30;;;8.40;1.00;;;;;;5054014;28;20757;-74
2023/01/08 06:54:50;;;;;;;4.23;3.83;;;8.40;1.00;;;;;;5056003;28;20236;-74
2023/01/08 06:57:16;;;;;;;4.40;4.10;;;8.40;1.00;;;;;;5056427;28;20454;-73
2023/01/08 06:59:42;;;;;;;5.13;4.63;;;8.50;1.00;;;;;;5056797;28;20616;-75
2023/01/08 07:02:15;;;;;;;5.50;5.00;;;8.40;1.00;;;;;;5056686;28;20707;-72
2023/01/08 07:04:41;;;;;;;7.00;4.33;;;8.50;1.00;;;;;;5055084;28;20498;-72
2023/01/08 07:07:08;;;;;;;5.43;4.93;;;8.50;1.00;;;;;;5056684;28;20908;-74
2023/01/08 07:09:34;;;;;;;4.97;4.47;;;8.60;1.00;;;;;;5056765;28;20416;-74
2023/01/08 07:12:00;;;;;;;4.33;3.93;;;8.60;1.00;;;;;;5056661;28;20400;-73
2023/01/08 07:14:25;;;;;;;4.70;4.40;;;8.60;1.00;;;;;;5054537;28;20436;-75
2023/01/08 07:16:51;;;;;;;4.33;3.93;;;8.60;1.00;;;;;;5055292;28;20202;-74
2023/01/08 07:19:17;;;;;;;4.87;4.47;;;8.60;1.00;;;;;;5056496;28;20166;-74
2023/01/08 07:21:42;;;;;;;6.20;4.33;;;8.60;1.00;;;;;;5056423;28;20178;-74
2023/01/08 07:24:08;;;;;;;4.80;4.40;;;8.60;1.00;;;;;;5056100;28;20197;-74
2023/01/08 07:26:34;;;;;;;5.17;4.67;;;8.70;1.00;;;;;;5055977;28;20208;-74
2023/01/08 07:29:00;;;;;;;5.17;4.70;;;8.70;1.00;;;;;;5055082;28;20627;-74
2023/01/08 07:31:26;;;;;;;4.87;4.30;;;8.70;1.00;;;;;;5056332;28;20173;-73
2023/01/08 07:33:51;;;;;;;5.00;4.60;;;8.70;1.00;;;;;;5055593;28;20390;-74
2023/01/08 07:36:21;;;;;;;4.73;4.33;;;8.70;1.00;;;;;;5055272;28;20575;-74
2023/01/08 07:38:48;;;;;;;5.17;4.50;;;8.70;1.00;;;;;;5056241;28;20172;-74
2023/01/08 07:41:14;;;;;;;5.33;4.83;;;8.70;1.00;;;;;;5056085;28;20379;-75
2023/01/08 07:43:40;;;;;;;5.10;4.70;;;8.80;1.00;;;;;;5056028;28;20758;-74
2023/01/08 07:46:06;;;;;;;4.47;4.07;;;8.80;1.00;;;;;;5055417;28;20400;-74
2023/01/08 07:48:31;;;;;;;4.73;4.33;;;8.70;1.00;;;;;;5055868;28;20173;-74
2023/01/08 07:51:05;;;;;;;4.50;4.20;;;8.70;1.00;;;;;;5055890;28;20178;-73
2023/01/08 07:53:32;;;;;;;5.13;4.67;;;8.80;1.00;;;;;;5055384;28;20205;-74
2023/01/08 07:56:03;;;;;;;5.07;4.67;;;8.80;1.00;;;;;;5055029;28;20458;-74
2023/01/08 07:58:29;;;;;;;5.97;4.90;;;8.80;1.00;;;;;;5055581;28;20408;-73
2023/01/08 08:00:55;;;;;;;5.00;4.60;;;8.70;1.00;;;;;;5055674;28;20405;-74
2023/01/08 08:03:21;;;;;;;5.10;4.60;;;8.70;1.00;;;;;;5055270;28;20882;-73
2023/01/08 08:05:47;;;;;;;7.47;4.90;;;8.70;1.00;;;;;;5054715;28;20402;-75
2023/01/08 08:08:12;;;;;;;7.17;5.07;;;8.80;1.00;;;;;;5055695;28;20376;-75
2023/01/08 08:10:39;;;;;;;6.07;5.23;;;8.70;1.00;;;;;;5055474;28;20607;-74
2023/01/08 08:13:05;;;;;;;5.30;4.80;;;8.80;1.00;;;;;;5054801;28;20175;-75
2023/01/08 08:15:33;;;;;;;6.80;5.27;;;8.70;1.00;;;;;;5053462;28;20440;-74
2023/01/08 08:17:59;;;;;;;5.30;4.60;;;8.70;1.00;;;;;;5055461;28;20476;-75
2023/01/08 08:20:24;;;;;;;6.10;5.50;;;8.70;1.00;;;;;;5055376;28;20441;-74
2023/01/08 08:22:50;;;;;;;4.93;4.43;;;8.70;1.00;;;;;;5055380;28;20179;-74
2023/01/08 08:25:16;;;;;;;5.97;5.47;;;8.70;1.00;;;;;;5054440;28;20427;-73
2023/01/08 08:27:43;;;;;;;4.80;4.40;;;8.70;1.00;;;;;;5055143;28;20198;-74
2023/01/08 08:30:10;;;;;;;5.30;4.80;;;8.70;1.00;;;;;;5055321;28;20839;-74
2023/01/08 08:32:36;;;;;;;6.00;4.70;;;8.70;1.00;;;;;;5054357;28;20432;-74
2023/01/08 08:35:03;;;;;;;5.80;5.00;;;8.70;1.00;;;;;;5054187;28;20443;-74
2023/01/08 08:37:29;;;;;;;4.63;4.23;;;8.70;1.00;;;;;;5055062;28;20447;-75
2023/01/08 08:39:54;;;;;;;7.80;4.97;;;8.70;1.00;;;;;;5054994;28;20420;-75
2023/01/08 08:42:20;;;;;;;4.10;3.80;;;8.70;1.00;;;;;;5054959;28;20186;-73
2023/01/08 08:44:46;;;;;;;5.17;4.77;;;8.70;1.00;;;;;;5054123;28;20201;-74
2023/01/08 08:47:12;;;;;;;4.80;4.40;;;8.70;1.00;;;;;;5054860;28;20532;-74
2023/01/08 08:49:38;;;;;;;5.07;4.67;;;8.70;1.00;;;;;;5054797;28;20161;-74
2023/01/08 08:52:04;;;;;;;6.53;4.93;;;8.80;1.00;;;;;;5054223;28;20374;-74
2023/01/08 08:54:30;;;;;;;4.53;4.13;;;8.80;1.00;;;;;;5052676;28;20503;-75
2023/01/08 08:56:56;;;;;;;4.67;4.37;;;8.70;1.00;;;;;;5054479;28;20824;-74
2023/01/08 08:59:23;;;;;;;4.53;4.20;;;8.70;1.00;;;;;;5054738;28;20381;-73
2023/01/08 09:01:49;;;;;;;4.60;4.20;;;8.80;1.00;;;;;;5054560;28;20244;-73
2023/01/08 09:04:14;;;;;;;6.53;4.97;;;8.80;1.00;;;;;;5054294;28;20543;-74
2023/01/08 09:06:40;;;;;;;6.07;4.60;;;8.80;1.00;;;;;;5054111;28;20170;-74
2023/01/08 09:09:06;;;;;;;5.40;4.90;;;8.80;1.00;;;;;;5054286;28;20172;-74
2023/01/08 09:11:31;;;;;;;4.93;4.47;;;8.90;1.00;;;;;;5053881;28;20178;-74
2023/01/08 09:13:57;;;;;;;4.00;3.60;;;8.90;1.00;;;;;;5054330;28;20662;-73
2023/01/08 09:16:23;;;;;;;7.33;5.57;;;8.90;1.00;;;;;;5052520;28;20184;-75
2023/01/08 09:18:48;;;;;;;6.43;5.33;;;8.90;1.00;;;;;;5054339;28;20171;-74
2023/01/08 09:21:14;;;;;;;4.50;4.10;;;8.90;1.00;;;;;;5052856;28;20175;-75
2023/01/08 09:23:40;;;;;;;8.23;4.53;;;8.90;1.00;;;;;;5054154;28;20634;-75
2023/01/08 09:26:06;;;;;;;6.83;5.00;;;8.90;1.00;;;;;;5053438;28;20203;-74
2023/01/08 09:28:32;;;;;;;4.87;4.47;;;8.90;1.00;;;;;;5054066;28;20163;-75
2023/01/08 09:31:02;;;;;;;4.97;4.50;;;8.90;1.00;;;;;;5053341;28;20652;-75
2023/01/08 09:33:28;;;;;;;5.20;4.63;;;8.80;1.00;;;;;;5053969;28;20817;-77
2023/01/08 09:35:54;;;;;;;5.20;4.80;;;8.70;1.00;;;;;;5053034;28;20457;-78
2023/01/08 09:38:20;;;;;;;5.80;4.70;;;8.70;1.00;;;;;;5053841;28;20566;-76
2023/01/08 09:41:03;;;;;;;6.47;4.80;;;8.70;1.00;;;;;;5054105;28;20217;-75
2023/01/08 09:43:33;;;;;;;6.60;5.30;;;8.70;1.00;;;;;;5053782;28;20163;-80
2023/01/08 09:46:03;;;;;;;4.93;4.53;;;8.60;1.00;;;;;;5053085;28;20505;-75
2023/01/08 09:48:35;;;;;;;5.30;4.80;;;8.70;1.00;;;;;;5053292;28;20481;-79
2023/01/08 09:51:02;;;;;;;5.90;5.30;;;8.70;1.00;;;;;;5053376;28;20382;-76
2023/01/08 09:53:28;;;;;;;5.70;4.63;;;8.70;1.00;;;;;;5053578;28;20504;-82
2023/01/08 09:55:58;;;;;;;6.03;4.70;;;8.80;1.00;;;;;;5052791;28;20461;-83
2023/01/08 09:58:35;;;;;;;4.40;4.00;;;8.80;1.00;;;;;;5053681;28;20410;-76
2023/01/08 10:01:02;;;;;;;5.60;5.17;;;8.80;1.00;;;;;;5053614;28;20823;-75
2023/01/08 10:03:36;;;;;;;4.70;4.30;;;8.80;2.10;;;;;;5053443;28;20389;-76
2023/01/08 10:06:11;;;;;;;4.50;4.20;;;8.80;9.40;;;;;;5052838;28;20430;-75
2023/01/08 10:08:37;;;;;;;5.23;4.30;;;8.80;21.60;;;;;;5052806;28;20404;-75
2023/01/08 10:11:04;;;;;;;4.23;3.87;;;8.80;29.80;;;;;;5053326;28;20755;-75
2023/01/08 10:13:30;;;;;;;9.50;4.33;;;8.80;31.80;;;;;;5053256;28;20405;-83
2023/01/08 10:15:56;;;;;;;5.40;4.93;;;8.80;44.40;;;;;;5052459;28;20454;-82
2023/01/08 10:18:24;;;;;;;4.60;4.30;;;8.90;57.10;;;;;;5053173;28;20455;-83
2023/01/08 10:20:50;;;;;;;5.00;4.50;;;8.90;65.60;;;;;;5053333;28;20528;-83
2023/01/08 10:23:18;;;;;;;6.70;4.90;;;8.90;81.10;;;;;;5053109;28;20383;-75
2023/01/08 10:26:00;;;;;;;4.10;3.80;;;8.90;80.40;;;;;;5051766;28;20223;-81
2023/01/08 10:28:27;;;;;;;4.03;3.80;;;8.90;90.40;;;;;;5053179;28;20402;-84
2023/01/08 10:31:06;;;;;;;4.67;4.37;;;8.90;98.20;;;;;;5052081;28;20800;-83
2023/01/08 10:33:45;;;;;;;4.47;4.17;;;9.00;99.90;;;;;;5053048;28;20458;-75
2023/01/08 10:36:14;;;;;;;5.53;5.00;;;9.10;99.90;;;;;;5052156;28;20541;-81
2023/01/08 10:38:49;;;;;;;5.90;5.33;;;9.10;99.90;;;;;;5052882;28;20444;-81
2023/01/08 10:41:16;;;;;;;4.53;4.13;;;9.10;99.90;;;;;;5051883;28;20401;-80
2023/01/08 10:43:55;;;;;;;5.10;4.63;;;9.10;99.90;;;;;;5052003;28;20405;-75
2023/01/08 10:46:42;;;;;;;4.63;4.00;;;9.20;99.90;;;;;;5052178;28;20400;-75
2023/01/08 10:49:35;;;;;;;7.20;5.17;;;9.20;99.90;;;;;;5052805;28;20439;-75
2023/01/08 10:52:01;;;;;;;5.00;4.60;;;9.30;99.90;;;;;;5052837;28;20413;-80
2023/01/08 10:54:32;;;;;;;4.20;3.83;;;9.30;99.90;;;;;;5052227;28;20422;-78
2023/01/08 10:56:58;;;;;;;4.77;4.20;;;9.30;99.90;;;;;;5052706;28;20285;-81
2023/01/08 10:59:24;;;;;;;4.47;4.07;;;9.20;99.90;;;;;;5052528;28;20534;-77
2023/01/08 11:01:54;;;;;;;5.03;4.63;;;9.20;99.90;;;;;;5052341;28;20904;-80
2023/01/08 11:04:31;;;;;;;5.20;4.80;;;9.20;99.90;;;;;;5050658;28;20918;-79
2023/01/08 11:07:04;;;;;;;4.53;4.10;;;9.30;99.90;;;;;;5052698;28;20412;-76
2023/01/08 11:09:47;;;;;;;4.40;4.03;;;9.30;99.90;;;;;;5051392;28;20414;-79
2023/01/08 11:12:24;;;;;;;4.40;4.10;;;9.30;99.90;;;;;;5052585;28;20403;-77
2023/01/08 11:14:50;;;;;;;5.27;4.13;;;9.30;99.90;;;;;;5052062;28;20803;-79
2023/01/08 11:17:16;;;;;;;8.37;4.50;;;9.30;99.90;;;;;;5052467;28;20437;-80
2023/01/08 11:19:41;;;;;;;4.30;4.00;;;9.40;99.90;;;;;;5051955;28;20168;-77
2023/01/08 11:22:20;;;;;;;4.70;4.10;;;9.40;99.90;;;;;;5052552;28;20512;-77
2023/01/08 11:24:48;;;;;;;4.70;4.27;;;9.30;99.90;;;;;;5051665;28;20677;-79
2023/01/08 11:27:35;;;;;;;5.27;4.87;;;9.40;99.90;;;;;;5052454;28;20384;-79
2023/01/08 11:30:10;;;;;;;4.60;4.30;;;9.40;99.90;;;;;;5052419;28;20401;-79
2023/01/08 11:32:48;;;;;;;3.90;3.70;;;9.40;99.90;;;;;;5052507;28;20440;-76
2023/01/08 11:35:23;;;;;;;4.93;4.50;;;9.50;99.90;;;;;;5051408;28;20448;-77
2023/01/08 11:37:58;;;;;;;4.90;4.50;;;9.60;99.90;;;;;;5051757;28;20513;-79
2023/01/08 11:40:30;;;;;;;4.43;4.13;;;9.50;99.90;;;;;;5055234;28;20469;-77
2023/01/08 11:43:37;;;;;;;4.50;4.20;;;9.50;99.90;;;;;;5055983;28;20435;-78
2023/01/08 11:46:30;;;;;;;4.70;4.30;;;9.50;99.90;;;;;;5055333;28;20798;-79
2023/01/08 11:49:29;;;;;;;4.90;4.40;;;9.50;99.90;;;;;;5055908;28;21013;-77
2023/01/08 11:52:24;;;;;;;8.03;5.17;;;9.50;99.90;;;;;;5055622;28;20419;-77
2023/01/08 11:55:19;;;;;;;3.90;3.60;;;9.40;99.90;;;;;;5054655;28;20444;-77
2023/01/08 11:58:23;;;;;;;4.77;4.40;;;9.40;99.90;;;;;;5055759;28;20593;-78
2023/01/08 12:01:13;;;;;;;4.40;4.00;;;9.40;99.90;;;;;;5055861;28;20430;-76
2023/01/08 12:03:51;;;;;;;4.47;3.90;;;9.50;99.90;;;;;;5055898;28;20394;-76
2023/01/08 12:06:30;;;;;;;5.90;3.97;;;9.50;99.90;;;;;;5053534;28;20469;-77
2023/01/08 12:09:18;;;;;;;4.43;4.10;;;9.50;99.90;;;;;;5055529;28;20766;-77
2023/01/08 12:11:54;;;;;;;4.20;3.90;;;9.50;99.90;;;;;;5055541;28;20407;-77
2023/01/08 12:14:41;;;;;;;4.83;3.70;;;9.60;99.90;;;;;;5053995;28;20431;-77
2023/01/08 12:17:33;;;;;;;5.17;4.67;;;9.70;99.90;;;;;;5055362;28;20461;-77
2023/01/08 12:20:06;;;;;;;11.43;4.67;;;9.70;99.90;;;;;;5054253;28;20424;-76
2023/01/08 12:22:42;;;;;;;4.73;4.00;;;9.80;99.90;;;;;;5055195;28;20418;-76
2023/01/08 12:25:34;;;;;;;4.60;4.20;;;9.80;99.90;;;;;;5054470;28;20810;-78
2023/01/08 12:28:14;;;;;;;4.70;4.30;;;9.80;99.90;;;;;;5055236;28;20904;-76
2023/01/08 12:30:53;;;;;;;5.70;3.73;;;9.80;99.90;;;;;;5055112;28;20422;-77
2023/01/08 12:33:26;;;;;;;4.60;4.30;;;9.80;97.50;;;;;;5054561;28;20750;-77
2023/01/08 12:35:56;;;;;;;3.67;3.43;;;9.80;94.60;;;;;;5054234;28;20806;-76
2023/01/08 12:38:45;;;;;;;6.93;3.60;;;9.90;94.70;;;;;;5054848;28;20420;-76
2023/01/08 12:41:14;;;;;;;4.67;4.27;;;9.90;88.90;;;;;;5054617;28;20817;-76
2023/01/08 12:43:58;;;;;;;3.90;3.60;;;10.00;80.30;;;;;;5054876;28;20968;-76
2023/01/08 12:46:32;;;;;;;4.37;4.03;;;10.00;71.70;;;;;;5054270;28;20403;-76
2023/01/08 12:48:59;;;;;;;4.00;3.60;;;9.90;42.30;;;;;;5054819;28;20427;-76
2023/01/08 12:51:43;;;;;;;5.07;4.37;;;9.90;32.80;;;;;;5054770;28;20462;-76
2023/01/08 12:54:18;;;;;;;4.57;4.17;;;9.90;32.90;;;;;;5053873;28;20515;-76
2023/01/08 12:57:00;;;;;;;3.67;3.47;;;9.90;24.70;;;;;;5054634;28;20458;-76
2023/01/08 12:59:44;;;;;;;5.10;3.93;;;9.80;15.30;;;;;;5054910;28;20814;-76
2023/01/08 13:02:35;;;;;;;3.73;3.30;;;9.80;1.00;;;;;;5054715;28;20474;-75
2023/01/08 13:05:32;;;;;;;3.63;3.40;;;9.80;1.00;;;;;;5053771;28;20435;-76
2023/01/08 13:08:02;;;;;;;3.90;3.30;;;9.80;1.00;;;;;;5054547;28;20397;-76
2023/01/08 13:10:31;;;;;;;4.57;3.00;;;9.70;1.00;;;;;;5054843;28;20551;-76
2023/01/08 13:13:00;;;;;;;4.50;3.20;;;9.80;1.00;;;;;;5053574;28;20421;-76
2023/01/08 13:15:28;;;;;;;5.40;3.73;;;9.80;1.00;;;;;;5053701;28;20899;-76
2023/01/08 13:17:56;;;;;;;3.53;3.23;;;9.70;1.00;;;;;;5054314;28;20455;-76
2023/01/08 13:20:27;;;;;;;3.93;3.37;;;9.70;1.00;;;;;;5054312;28;20409;-76